Time;durP1;ratioP1;P1;durP2;ratioP2;P2;SDS_P1;SDS_P2;PMS_P1;PMS_P2;Temp;Humidity;BMP_temperature;BMP_pressure;BME280_temperature;BME280_humidity;BME280_pressure;Samples;Min_cycle;Max_cycle;Signal;HPM_P1;HPM_P2
2023/09/22 00:00:33;;;;;;;5.20;3.93;;;26.00;57.20;;;;;;6196501;23;20402;-80
2023/09/22 00:03:03;;;;;;;3.80;3.43;;;26.00;57.30;;;;;;6194153;23;20383;-80
2023/09/22 00:05:31;;;;;;;3.90;3.50;;;26.00;57.20;;;;;;6194307;23;20431;-80
2023/09/22 00:07:59;;;;;;;3.57;3.37;;;26.00;57.30;;;;;;6191779;23;20408;-80
2023/09/22 00:10:27;;;;;;;3.80;3.57;;;25.90;57.40;;;;;;6207020;23;20417;-80
2023/09/22 00:12:55;;;;;;;3.70;3.47;;;25.90;57.30;;;;;;6242157;23;20417;-80
2023/09/22 00:15:26;;;;;;;3.50;3.30;;;25.90;57.30;;;;;;6230453;23;20407;-80
2023/09/22 00:17:55;;;;;;;3.50;3.17;;;25.90;57.40;;;;;;6218973;23;20415;-79
2023/09/22 00:20:24;;;;;;;3.00;2.80;;;25.90;57.50;;;;;;6217065;23;20427;-79
2023/09/22 00:22:53;;;;;;;3.03;2.80;;;25.90;57.60;;;;;;6219035;23;20414;-79
2023/09/22 00:25:22;;;;;;;3.80;3.50;;;25.90;57.50;;;;;;6218704;23;20721;-79
2023/09/22 00:27:50;;;;;;;3.60;3.10;;;25.80;57.40;;;;;;6218169;23;20406;-79
2023/09/22 00:30:19;;;;;;;2.83;2.63;;;25.90;57.70;;;;;;6219602;23;20418;-79
2023/09/22 00:32:49;;;;;;;2.90;2.70;;;25.80;57.50;;;;;;6219725;23;20436;-79
2023/09/22 00:35:18;;;;;;;3.20;3.00;;;25.80;57.60;;;;;;6221147;23;20472;-80
2023/09/22 00:37:46;;;;;;;3.43;2.93;;;25.80;57.70;;;;;;6220473;23;20871;-79
2023/09/22 00:40:15;;;;;;;2.70;2.60;;;25.80;57.50;;;;;;6221564;23;20409;-79
2023/09/22 00:42:45;;;;;;;2.53;2.43;;;25.80;57.70;;;;;;6222862;23;20410;-80
2023/09/22 00:45:14;;;;;;;2.47;2.27;;;25.80;57.70;;;;;;6224999;23;20466;-80
2023/09/22 00:47:42;;;;;;;2.90;2.70;;;25.70;57.70;;;;;;6221155;23;20426;-79
2023/09/22 00:50:12;;;;;;;2.67;2.57;;;25.70;57.80;;;;;;6221491;23;20435;-80
2023/09/22 00:52:40;;;;;;;2.37;2.27;;;25.70;57.80;;;;;;6223416;23;20374;-79
2023/09/22 00:55:09;;;;;;;2.20;2.10;;;25.70;57.90;;;;;;6221322;23;20403;-79
2023/09/22 00:57:37;;;;;;;2.63;2.53;;;25.70;57.80;;;;;;6222014;23;20407;-79
2023/09/22 01:00:08;;;;;;;3.30;3.00;;;25.70;57.80;;;;;;6222831;23;20402;-79
2023/09/22 01:02:37;;;;;;;3.90;2.40;;;25.70;58.00;;;;;;6221006;23;20429;-79
2023/09/22 01:05:08;;;;;;;2.43;2.30;;;25.70;58.00;;;;;;6218104;23;20434;-79
2023/09/22 01:07:37;;;;;;;2.77;2.50;;;25.60;57.90;;;;;;6216821;23;20381;-79
2023/09/22 01:10:09;;;;;;;3.43;2.27;;;25.70;58.00;;;;;;6221921;23;20423;-79
2023/09/22 01:12:37;;;;;;;2.53;2.33;;;25.60;58.00;;;;;;6219908;23;20382;-80
2023/09/22 01:15:08;;;;;;;2.80;2.60;;;25.60;58.10;;;;;;6220056;23;20418;-79
2023/09/22 01:17:37;;;;;;;2.13;2.03;;;25.60;57.90;;;;;;6222843;23;20374;-80
2023/09/22 01:20:07;;;;;;;2.50;2.40;;;25.60;58.20;;;;;;6222372;23;20497;-81
2023/09/22 01:22:37;;;;;;;2.43;2.30;;;25.60;58.00;;;;;;6226781;23;20479;-79
2023/09/22 01:25:06;;;;;;;2.23;2.03;;;25.60;58.10;;;;;;6223864;23;20426;-80
2023/09/22 01:27:34;;;;;;;2.67;2.47;;;25.60;58.20;;;;;;6223956;23;20373;-80
2023/09/22 01:30:05;;;;;;;2.30;2.10;;;25.60;58.30;;;;;;6224900;23;20436;-80
2023/09/22 01:32:37;;;;;;;2.33;2.23;;;25.50;58.20;;;;;;6223160;23;20381;-80
2023/09/22 01:35:07;;;;;;;2.17;2.07;;;25.60;58.10;;;;;;6223933;23;20402;-80
2023/09/22 01:37:38;;;;;;;2.10;2.00;;;25.50;58.20;;;;;;6220415;23;20410;-79
2023/09/22 01:40:08;;;;;;;2.10;2.00;;;25.50;58.20;;;;;;6223002;23;20427;-80
2023/09/22 01:42:36;;;;;;;2.67;2.57;;;25.50;58.30;;;;;;6223655;23;20473;-80
2023/09/22 01:45:05;;;;;;;2.50;2.30;;;25.50;58.20;;;;;;6224181;23;20433;-79
2023/09/22 01:47:34;;;;;;;2.60;2.50;;;25.50;58.30;;;;;;6220814;23;20457;-80
2023/09/22 01:50:02;;;;;;;2.60;2.50;;;25.50;58.20;;;;;;6221285;23;20402;-78
2023/09/22 01:52:30;;;;;;;8.37;6.83;;;25.50;58.20;;;;;;6220456;23;20431;-78
2023/09/22 01:54:59;;;;;;;11.50;9.17;;;25.50;58.40;;;;;;6221335;23;20403;-79
2023/09/22 01:57:28;;;;;;;10.93;9.13;;;25.50;58.10;;;;;;6221951;23;20746;-79
2023/09/22 01:59:56;;;;;;;9.83;8.67;;;25.50;58.30;;;;;;6221128;23;20401;-79
2023/09/22 02:02:24;;;;;;;9.43;8.07;;;25.50;58.30;;;;;;6220907;23;20382;-79
2023/09/22 02:04:52;;;;;;;23.40;11.30;;;25.40;58.30;;;;;;6220264;23;20406;-80
2023/09/22 02:07:20;;;;;;;12.87;10.63;;;25.40;58.30;;;;;;6221367;23;20382;-79
2023/09/22 02:09:48;;;;;;;10.10;8.60;;;25.40;58.30;;;;;;6221274;23;20389;-79
2023/09/22 02:12:19;;;;;;;14.20;10.60;;;25.40;58.40;;;;;;6221444;23;20432;-79
2023/09/22 02:14:47;;;;;;;13.17;10.77;;;25.50;58.10;;;;;;6219250;23;20434;-79
2023/09/22 02:17:16;;;;;;;15.33;11.63;;;25.50;58.30;;;;;;6223423;23;20419;-81
2023/09/22 02:19:45;;;;;;;14.50;10.70;;;25.40;58.10;;;;;;6224370;23;20417;-80
2023/09/22 02:22:13;;;;;;;14.63;11.50;;;25.40;58.20;;;;;;6225819;23;20415;-80
2023/09/22 02:24:41;;;;;;;12.77;10.50;;;25.40;58.40;;;;;;6225533;23;20703;-80
2023/09/22 02:27:12;;;;;;;12.77;10.23;;;25.40;58.20;;;;;;6222235;23;20439;-80
2023/09/22 02:29:42;;;;;;;12.83;10.10;;;25.40;58.30;;;;;;6221714;23;20418;-80
2023/09/22 02:32:10;;;;;;;13.23;10.73;;;25.40;58.50;;;;;;6223404;23;20382;-81
2023/09/22 02:34:38;;;;;;;11.83;9.90;;;25.40;58.40;;;;;;6222728;23;20883;-81
2023/09/22 02:37:07;;;;;;;14.20;10.67;;;25.40;58.40;;;;;;6223817;23;20398;-80
2023/09/22 02:39:35;;;;;;;11.43;9.53;;;25.40;58.30;;;;;;6222847;23;20373;-80
2023/09/22 02:42:03;;;;;;;10.97;9.40;;;25.40;58.20;;;;;;6223960;23;20461;-80
2023/09/22 02:44:31;;;;;;;10.90;9.00;;;25.30;58.30;;;;;;6223150;23;20395;-81
2023/09/22 02:47:00;;;;;;;10.10;9.10;;;25.30;58.30;;;;;;6222831;23;20398;-80
2023/09/22 02:49:30;;;;;;;10.30;8.23;;;25.40;58.20;;;;;;6223200;23;20404;-81
2023/09/22 02:51:58;;;;;;;10.33;8.53;;;25.30;58.20;;;;;;6223156;23;20430;-80
2023/09/22 02:54:26;;;;;;;11.63;9.37;;;25.30;58.40;;;;;;6222037;23;20422;-80
2023/09/22 02:56:56;;;;;;;10.80;8.60;;;25.30;58.40;;;;;;6223616;23;20413;-81
2023/09/22 02:59:24;;;;;;;10.30;8.67;;;25.30;58.40;;;;;;6223287;23;20402;-80
2023/09/22 03:01:52;;;;;;;9.63;8.57;;;25.30;58.30;;;;;;6222988;23;20447;-80
2023/09/22 03:04:22;;;;;;;10.30;8.47;;;25.30;58.30;;;;;;6222322;23;20382;-80
2023/09/22 03:06:50;;;;;;;9.00;7.70;;;25.20;58.10;;;;;;6223227;23;20409;-79
2023/09/22 03:09:18;;;;;;;11.23;8.13;;;25.30;58.40;;;;;;6224033;23;20450;-81
2023/09/22 03:11:46;;;;;;;8.53;7.47;;;25.30;58.40;;;;;;6224450;23;20465;-80
2023/09/22 03:14:15;;;;;;;8.03;7.20;;;25.30;58.20;;;;;;6223955;23;20407;-80
2023/09/22 03:16:43;;;;;;;9.33;7.27;;;25.20;58.20;;;;;;6230668;23;20378;-80
2023/09/22 03:19:12;;;;;;;8.50;7.57;;;25.20;58.30;;;;;;6231781;23;20495;-79
2023/09/22 03:21:41;;;;;;;7.90;7.10;;;25.20;58.30;;;;;;6228762;23;20418;-79
2023/09/22 03:24:10;;;;;;;7.50;6.80;;;25.20;58.20;;;;;;6228644;23;20509;-80
2023/09/22 03:26:38;;;;;;;7.73;6.93;;;25.20;58.00;;;;;;6224754;23;20485;-80
2023/09/22 03:29:06;;;;;;;7.50;6.63;;;25.20;58.10;;;;;;6223892;23;20409;-80
2023/09/22 03:31:36;;;;;;;6.93;6.07;;;25.20;58.40;;;;;;6224346;23;20401;-77
2023/09/22 03:34:04;;;;;;;7.53;6.73;;;25.20;58.20;;;;;;6224740;23;20414;-78
2023/09/22 03:36:32;;;;;;;6.50;5.90;;;25.20;58.20;;;;;;6223017;23;20401;-80
2023/09/22 03:39:03;;;;;;;7.00;6.30;;;25.20;58.20;;;;;;6221403;23;20430;-80
2023/09/22 03:41:35;;;;;;;6.97;5.90;;;25.10;58.10;;;;;;6224008;23;20454;-79
2023/09/22 03:44:04;;;;;;;6.93;5.70;;;25.20;58.20;;;;;;6220911;23;20627;-78
2023/09/22 03:46:32;;;;;;;6.67;6.00;;;25.20;58.10;;;;;;6219990;23;20458;-78
2023/09/22 03:49:00;;;;;;;6.27;5.67;;;25.20;58.20;;;;;;6221483;23;20462;-79
2023/09/22 03:51:29;;;;;;;6.43;5.83;;;25.20;58.20;;;;;;6222891;23;20390;-79
2023/09/22 03:53:57;;;;;;;8.07;5.80;;;25.10;58.10;;;;;;6220042;23;20407;-79
2023/09/22 03:56:27;;;;;;;5.73;5.23;;;25.10;58.30;;;;;;6219120;23;20362;-78
2023/09/22 03:58:56;;;;;;;5.70;5.20;;;25.10;58.00;;;;;;6219702;23;20419;-79
2023/09/22 04:01:24;;;;;;;5.80;5.27;;;25.10;58.10;;;;;;6223443;23;20471;-78
2023/09/22 04:03:52;;;;;;;7.00;5.80;;;25.10;58.30;;;;;;6221167;23;20407;-78
2023/09/22 04:06:20;;;;;;;5.60;5.10;;;25.10;58.20;;;;;;6219269;23;20485;-80
2023/09/22 04:08:49;;;;;;;6.03;5.33;;;25.00;58.20;;;;;;6223592;23;20382;-80
2023/09/22 04:11:18;;;;;;;5.20;4.70;;;25.00;58.20;;;;;;6224315;23;20417;-80
2023/09/22 04:13:47;;;;;;;5.37;4.87;;;25.10;58.10;;;;;;6222668;23;20395;-79
2023/09/22 04:16:16;;;;;;;5.13;4.63;;;25.00;58.10;;;;;;6221899;23;20381;-79
2023/09/22 04:18:45;;;;;;;4.70;4.30;;;25.00;58.30;;;;;;6222608;23;20377;-78
2023/09/22 04:21:14;;;;;;;5.20;4.70;;;25.00;58.30;;;;;;6222355;23;20401;-79
2023/09/22 04:23:50;;;;;;;4.80;4.30;;;25.00;58.20;;;;;;6223553;23;20413;-79
2023/09/22 04:26:18;;;;;;;5.13;4.70;;;25.00;58.20;;;;;;6223605;23;20424;-79
2023/09/22 04:28:48;;;;;;;4.47;4.13;;;25.00;58.20;;;;;;6224221;23;20475;-79
2023/09/22 04:31:16;;;;;;;4.80;4.30;;;25.00;58.40;;;;;;6223184;23;20724;-77
2023/09/22 04:33:47;;;;;;;4.80;4.40;;;25.00;58.20;;;;;;6223163;23;20386;-80
2023/09/22 04:36:15;;;;;;;4.20;3.90;;;24.90;58.30;;;;;;6225405;23;20395;-81
2023/09/22 04:38:47;;;;;;;3.93;3.63;;;25.00;58.40;;;;;;6224785;23;20414;-81
2023/09/22 04:41:15;;;;;;;4.73;4.07;;;24.90;58.40;;;;;;6224957;23;20465;-81
2023/09/22 04:43:43;;;;;;;4.77;4.37;;;25.00;58.30;;;;;;6225294;23;20414;-80
2023/09/22 04:46:15;;;;;;;4.80;4.40;;;24.90;58.10;;;;;;6223101;23;20382;-79
2023/09/22 04:48:46;;;;;;;4.80;3.50;;;24.90;58.20;;;;;;6219584;23;20407;-79
2023/09/22 04:51:15;;;;;;;4.90;4.40;;;24.90;58.20;;;;;;6220336;23;20427;-80
2023/09/22 04:53:43;;;;;;;4.50;3.73;;;24.90;58.10;;;;;;6220931;23;20407;-79
2023/09/22 04:56:12;;;;;;;4.23;3.93;;;24.90;58.40;;;;;;6217449;23;20435;-79
2023/09/22 04:58:40;;;;;;;5.70;4.20;;;24.90;58.30;;;;;;6218175;23;20381;-79
2023/09/22 05:01:14;;;;;;;4.30;4.00;;;24.80;58.10;;;;;;6217430;23;20478;-79
2023/09/22 05:03:43;;;;;;;4.43;3.90;;;24.80;58.40;;;;;;6217333;23;20445;-78
2023/09/22 05:06:12;;;;;;;3.97;3.57;;;24.80;58.20;;;;;;6217595;23;20432;-78
2023/09/22 05:08:42;;;;;;;4.73;3.80;;;24.80;58.30;;;;;;6218968;23;20409;-77
2023/09/22 05:11:11;;;;;;;3.87;3.57;;;24.80;58.20;;;;;;6219134;23;20433;-78
2023/09/22 05:13:39;;;;;;;3.37;3.17;;;24.80;58.20;;;;;;6219214;23;20455;-79
2023/09/22 05:16:09;;;;;;;3.90;3.20;;;24.80;58.20;;;;;;6219223;23;20382;-79
2023/09/22 05:18:39;;;;;;;3.50;3.30;;;24.80;58.10;;;;;;6218134;23;20439;-79
2023/09/22 05:21:09;;;;;;;3.30;3.10;;;24.80;58.10;;;;;;6222564;23;20423;-80
2023/09/22 05:23:37;;;;;;;3.50;3.30;;;24.80;58.20;;;;;;6217127;23;20433;-80
2023/09/22 05:26:08;;;;;;;4.10;3.80;;;24.80;58.30;;;;;;6223237;23;20386;-80
2023/09/22 05:28:37;;;;;;;3.90;3.60;;;24.80;58.20;;;;;;6222317;23;20416;-80
2023/09/22 05:31:06;;;;;;;3.57;3.27;;;24.80;58.20;;;;;;6221767;23;20431;-79
2023/09/22 05:33:43;;;;;;;3.33;3.13;;;24.80;58.30;;;;;;6223114;23;20402;-80
2023/09/22 05:36:12;;;;;;;3.63;3.33;;;24.80;58.20;;;;;;6221832;23;20440;-79
2023/09/22 05:38:40;;;;;;;3.77;3.47;;;24.80;58.10;;;;;;6221501;23;20430;-81
2023/09/22 05:41:09;;;;;;;3.43;3.13;;;24.80;58.10;;;;;;6222220;23;20471;-81
2023/09/22 05:43:38;;;;;;;4.00;3.70;;;24.80;58.20;;;;;;6223830;23;20385;-81
2023/09/22 05:46:07;;;;;;;3.83;3.50;;;24.80;58.30;;;;;;6224265;23;20382;-81
2023/09/22 05:48:36;;;;;;;3.53;3.27;;;24.80;58.20;;;;;;6224607;23;20513;-79
2023/09/22 05:51:05;;;;;;;3.87;3.57;;;24.80;58.20;;;;;;6224232;23;20389;-77
2023/09/22 05:53:35;;;;;;;2.90;2.70;;;24.80;58.10;;;;;;6220963;23;20474;-78
2023/09/22 05:56:05;;;;;;;3.87;3.43;;;24.80;58.10;;;;;;6221458;23;20402;-83
2023/09/22 05:58:34;;;;;;;3.20;3.00;;;24.80;58.10;;;;;;6221195;23;20459;-79
2023/09/22 06:01:07;;;;;;;3.33;3.13;;;24.80;58.20;;;;;;6221341;23;20423;-81
2023/09/22 06:03:37;;;;;;;3.27;3.07;;;24.80;58.10;;;;;;6226026;23;20371;-80
2023/09/22 06:06:08;;;;;;;3.40;3.20;;;24.80;58.10;;;;;;6225002;23;20399;-79
2023/09/22 06:08:37;;;;;;;2.90;2.70;;;24.80;58.10;;;;;;6225290;23;20428;-79
2023/09/22 06:11:05;;;;;;;2.87;2.77;;;24.80;58.00;;;;;;6224311;23;20427;-81
2023/09/22 06:13:35;;;;;;;2.90;2.73;;;24.80;58.00;;;;;;6226254;23;20406;-81
2023/09/22 06:16:05;;;;;;;2.53;2.43;;;24.80;57.80;;;;;;6231688;23;20376;-81
2023/09/22 06:18:37;;;;;;;2.70;2.60;;;24.80;58.40;;;;;;6235178;23;20407;-81
2023/09/22 06:21:07;;;;;;;2.77;2.60;;;24.80;57.90;;;;;;6231443;23;20423;-81
2023/09/22 06:23:36;;;;;;;2.90;2.70;;;24.90;58.00;;;;;;6229841;23;20414;-80
2023/09/22 06:26:05;;;;;;;3.30;3.00;;;24.90;57.80;;;;;;6226230;23;20382;-80
2023/09/22 06:28:33;;;;;;;2.70;2.60;;;24.90;57.90;;;;;;6225226;23;20410;-81
2023/09/22 06:31:05;;;;;;;2.83;2.63;;;24.90;57.90;;;;;;6225935;23;20409;-80
2023/09/22 06:33:34;;;;;;;2.40;2.30;;;24.90;57.80;;;;;;6225553;23;20402;-81
2023/09/22 06:36:04;;;;;;;3.07;2.77;;;24.90;58.60;;;;;;6222748;23;20405;-79
2023/09/22 06:41:49;;;;;;;2.50;2.30;;;24.90;57.80;;;;;;6216085;23;20426;-80
2023/09/22 06:44:21;;;;;;;2.47;2.37;;;24.90;58.40;;;;;;6225041;23;20686;-81
2023/09/22 06:46:50;;;;;;;2.70;2.50;;;24.90;58.40;;;;;;6225447;23;20432;-78
2023/09/22 06:49:19;;;;;;;3.40;3.10;;;24.90;57.70;;;;;;6227028;23;20421;-81
2023/09/22 06:51:48;;;;;;;3.43;3.23;;;24.90;57.70;;;;;;6225625;23;20408;-78
2023/09/22 06:54:23;;;;;;;3.30;3.10;;;24.90;57.70;;;;;;6228247;23;20412;-81
2023/09/22 06:56:52;;;;;;;2.80;2.63;;;24.90;57.80;;;;;;6227267;23;20841;-79
2023/09/22 06:59:21;;;;;;;3.10;2.90;;;24.90;57.50;;;;;;6223322;23;20366;-81
2023/09/22 07:01:50;;;;;;;2.60;2.50;;;24.90;57.80;;;;;;6221491;23;20406;-82
2023/09/22 07:04:22;;;;;;;4.43;3.43;;;24.90;57.70;;;;;;6220785;23;20486;-78
2023/09/22 07:06:52;;;;;;;2.90;2.70;;;25.00;57.70;;;;;;6223032;23;20419;-80
2023/09/22 07:09:32;;;;;;;3.50;2.40;;;25.00;57.50;;;;;;6223189;23;20435;-79
2023/09/22 07:12:02;;;;;;;2.80;2.60;;;25.00;57.70;;;;;;6222362;23;20432;-79
2023/09/22 07:14:33;;;;;;;4.00;2.73;;;25.00;57.60;;;;;;6222476;23;20374;-77
2023/09/22 07:17:08;;;;;;;2.70;2.50;;;25.00;57.60;;;;;;6223963;23;20482;-77
2023/09/22 07:19:40;;;;;;;3.07;2.90;;;25.00;57.60;;;;;;6223669;23;20410;-77
2023/09/22 07:22:08;;;;;;;3.23;3.03;;;25.00;57.40;;;;;;6224079;23;20407;-79
2023/09/22 07:24:39;;;;;;;3.13;2.90;;;25.00;57.30;;;;;;6226590;23;20393;-80
2023/09/22 07:27:08;;;;;;;2.80;2.60;;;25.00;57.20;;;;;;6225600;23;20449;-79
2023/09/22 07:29:42;;;;;;;3.07;2.87;;;25.00;57.30;;;;;;6224895;23;20410;-78
2023/09/22 07:32:51;;;;;;;2.80;2.60;;;25.00;57.30;;;;;;6224570;23;20428;-79
2023/09/22 07:35:32;;;;;;;2.83;2.63;;;25.10;57.30;;;;;;6220099;23;20427;-79
2023/09/22 07:38:24;;;;;;;2.50;2.40;;;25.10;57.00;;;;;;6219237;23;20395;-79
2023/09/22 07:44:18;;;;;;;2.87;2.67;;;25.10;57.00;;;;;;6225310;23;20381;-78
2023/09/22 07:46:56;;;;;;;2.50;2.30;;;25.20;56.90;;;;;;6220053;23;20377;-79
2023/09/22 07:49:27;;;;;;;2.60;2.50;;;25.20;57.00;;;;;;6218370;23;20430;-80
2023/09/22 07:51:56;;;;;;;2.90;2.70;;;25.30;56.80;;;;;;6221181;23;20456;-80
2023/09/22 07:54:25;;;;;;;2.10;2.00;;;25.30;56.90;;;;;;6225799;23;20486;-80
2023/09/22 07:57:01;;;;;;;2.90;2.70;;;25.40;56.80;;;;;;6224685;23;20388;-79
2023/09/22 07:59:35;;;;;;;2.33;2.23;;;25.40;56.70;;;;;;6224789;23;20399;-80
2023/09/22 08:02:06;;;;;;;2.20;2.10;;;25.50;56.90;;;;;;6224187;23;20460;-79
2023/09/22 08:04:59;;;;;;;2.10;2.00;;;25.50;56.70;;;;;;6220798;23;20410;-79
2023/09/22 08:08:18;;;;;;;2.50;2.40;;;25.60;56.70;;;;;;6218103;23;20381;-80
2023/09/22 08:10:58;;;;;;;1.97;1.87;;;25.60;56.70;;;;;;6218030;23;20445;-80
2023/09/22 08:13:41;;;;;;;2.00;1.90;;;25.60;56.70;;;;;;6218677;23;20376;-78
2023/09/22 08:16:10;;;;;;;2.10;2.00;;;25.70;56.90;;;;;;6219627;23;20455;-80
2023/09/22 08:18:57;;;;;;;1.97;1.87;;;25.70;57.00;;;;;;6221652;23;20403;-82
2023/09/22 08:21:44;;;;;;;2.13;1.97;;;25.80;56.80;;;;;;6218388;23;20407;-83
2023/09/22 08:25:08;;;;;;;2.80;2.00;;;25.90;56.70;;;;;;6223813;23;20395;-80
2023/09/22 08:31:21;;;;;;;2.60;2.40;;;25.90;56.40;;;;;;6129017;23;20415;-81
2023/09/22 08:34:35;;;;;;;;;;;;;;;;;;;;;
2023/09/22 08:37:40;;;;;;;2.40;2.27;;;25.90;56.40;;;;;;6221319;23;20370;-78
2023/09/22 08:40:24;;;;;;;2.43;2.20;;;25.90;56.20;;;;;;6218055;23;20402;-78
2023/09/22 08:43:18;;;;;;;3.70;2.53;;;25.90;56.00;;;;;;6218192;23;20441;-81
2023/09/22 08:46:01;;;;;;;3.00;2.40;;;25.90;56.00;;;;;;6168255;23;20438;-80
2023/09/22 08:48:34;;;;;;;2.13;2.03;;;25.90;55.80;;;;;;6224340;23;20385;-81
2023/09/22 08:51:18;;;;;;;2.83;2.60;;;25.80;55.90;;;;;;6228228;23;20397;-81
2023/09/22 08:57:32;;;;;;;2.50;2.40;;;25.70;55.90;;;;;;6210313;23;20382;-80
2023/09/22 09:00:12;;;;;;;2.57;2.37;;;25.70;55.80;;;;;;6227728;23;20434;-81
2023/09/22 09:06:21;;;;;;;2.50;2.30;;;25.70;55.80;;;;;;6128279;23;20425;-83
2023/09/22 09:12:53;;;;;;;2.70;2.50;;;25.70;55.80;;;;;;6040130;23;20378;-82
2023/09/22 09:15:45;;;;;;;2.57;2.37;;;25.60;55.70;;;;;;5989777;23;20383;-82
2023/09/22 09:18:41;;;;;;;2.70;2.47;;;25.60;55.60;;;;;;6038208;23;20413;-80
2023/09/22 09:22:13;;;;;;;;;;;;;;;;;;;;;
2023/09/22 09:24:54;;;;;;;4.87;2.97;;;25.60;55.50;;;;;;6040972;23;20412;-81
2023/09/22 09:30:54;;;;;;;3.90;3.00;;;25.60;55.30;;;;;;6130801;23;20454;-80
2023/09/22 09:33:59;;;;;;;2.90;2.70;;;25.60;55.50;;;;;;6168669;23;20524;-81
2023/09/22 09:40:10;;;;;;;3.23;2.80;;;25.70;55.50;;;;;;6161072;23;20440;-80
2023/09/22 09:42:45;;;;;;;3.03;2.50;;;25.70;55.50;;;;;;6156456;23;20393;-80
2023/09/22 09:49:20;;;;;;;4.10;2.63;;;25.80;55.10;;;;;;6127022;23;20366;-82
2023/09/22 09:52:10;;;;;;;2.70;2.60;;;25.80;55.20;;;;;;6039784;23;20429;-81
2023/09/22 09:55:07;;;;;;;4.27;2.60;;;25.80;55.00;;;;;;6126893;23;20405;-81
2023/09/22 09:58:20;;;;;;;4.00;2.60;;;25.80;54.90;;;;;;6129458;23;20932;-81
2023/09/22 10:01:07;;;;;;;2.60;2.40;;;25.90;55.00;;;;;;5934728;23;20432;-79
2023/09/22 10:18:51;;;;;;;6.73;2.93;;;26.70;53.90;;;;;;6071974;23;20408;-83
2023/09/22 10:25:32;;;;;;;3.80;2.70;;;26.80;53.50;;;;;;6191123;23;20685;-83
2023/09/22 10:31:49;;;;;;;3.10;2.57;;;27.00;53.50;;;;;;6225173;23;20421;-83
2023/09/22 10:35:46;;;;;;;2.90;2.70;;;27.10;53.50;;;;;;6219207;23;20395;-82
2023/09/22 10:42:54;;;;;;;3.60;2.20;;;28.00;53.70;;;;;;6179115;23;20461;-82
2023/09/22 10:45:42;;;;;;;4.53;2.67;;;28.60;53.50;;;;;;6192755;23;20438;-82
2023/09/22 10:48:40;;;;;;;;;;;;;;;;;;;;;
2023/09/22 10:51:49;;;;;;;3.03;2.23;;;29.40;52.20;;;;;;6218502;23;20438;-80
2023/09/22 10:59:19;;;;;;;2.57;2.20;;;29.50;51.50;;;;;;6132106;23;20355;-80
2023/09/22 12:20:12;;;;;;;1.73;1.63;;;31.60;45.80;;;;;;5936522;23;20501;-78
2023/09/22 12:41:32;;;;;;;1.47;1.23;;;23.20;50.30;;;;;;5976553;23;20490;-80
2023/09/22 12:44:04;;;;;;;1.63;1.53;;;24.90;50.30;;;;;;6077088;23;20443;-78
2023/09/22 12:47:02;;;;;;;2.10;1.30;;;24.00;48.70;;;;;;6072392;23;20386;-79
2023/09/22 12:49:38;;;;;;;2.90;1.43;;;23.50;50.60;;;;;;6068558;23;20427;-78
2023/09/22 12:52:09;;;;;;;3.30;1.70;;;23.10;51.00;;;;;;6068378;23;20392;-78
2023/09/22 12:57:26;;;;;;;1.60;1.50;;;22.30;53.20;;;;;;6066304;23;20404;-77
2023/09/22 13:00:01;;;;;;;1.80;1.70;;;21.60;54.60;;;;;;6064272;23;20435;-79
2023/09/22 13:02:39;;;;;;;3.53;2.13;;;21.90;55.20;;;;;;6064322;23;20415;-78
2023/09/22 13:09:27;;;;;;;1.83;1.67;;;22.80;51.30;;;;;;6063172;23;20370;-77
2023/09/22 13:15:47;;;;;;;1.87;1.67;;;22.20;53.50;;;;;;6081426;23;20420;-78
2023/09/22 13:18:25;;;;;;;2.37;1.53;;;22.80;52.40;;;;;;6156374;23;20463;-78
2023/09/22 13:21:21;;;;;;;7.87;1.30;;;24.30;54.20;;;;;;6156046;23;20411;-81
2023/09/22 13:24:43;;;;;;;1.43;1.33;;;25.00;49.70;;;;;;6158337;23;20418;-83
2023/09/22 13:27:33;;;;;;;1.20;1.10;;;25.80;48.80;;;;;;6107725;23;20416;-82
2023/09/22 13:30:05;;;;;;;3.83;1.27;;;26.30;47.60;;;;;;6159662;23;20403;-82
2023/09/22 13:32:35;;;;;;;2.30;0.90;;;26.60;46.70;;;;;;6159482;23;20492;-80
2023/09/22 13:35:06;;;;;;;1.23;1.13;;;26.80;46.30;;;;;;6159006;23;20433;-81
2023/09/22 13:37:35;;;;;;;2.20;1.17;;;27.00;45.80;;;;;;6160824;23;20403;-80
2023/09/22 13:40:34;;;;;;;3.03;0.93;;;27.10;45.50;;;;;;6159430;23;20464;-82
2023/09/22 13:43:28;;;;;;;1.00;0.90;;;27.20;45.40;;;;;;6060735;23;20383;-80
2023/09/22 13:46:32;;;;;;;1.20;1.10;;;27.80;45.80;;;;;;6069058;23;20381;-81
2023/09/22 13:49:13;;;;;;;0.97;0.90;;;29.30;44.50;;;;;;6074174;23;20411;-80
2023/09/22 13:52:10;;;;;;;0.87;0.87;;;30.60;42.00;;;;;;6070806;23;20438;-82
2023/09/22 13:55:04;;;;;;;1.00;1.00;;;31.60;41.00;;;;;;6071469;23;20414;-79
2023/09/22 13:57:46;;;;;;;1.00;1.00;;;32.10;38.80;;;;;;6068066;23;20403;-77
2023/09/22 14:00:35;;;;;;;1.27;1.17;;;32.30;38.50;;;;;;6070370;23;20506;-80
2023/09/22 14:03:03;;;;;;;2.93;0.93;;;32.80;39.40;;;;;;6065857;23;20407;-79
2023/09/22 14:05:49;;;;;;;1.53;1.10;;;33.90;37.40;;;;;;6066272;23;20770;-80
2023/09/22 14:08:21;;;;;;;0.80;0.80;;;35.30;36.00;;;;;;6068015;23;20490;-80
2023/09/22 14:10:49;;;;;;;0.90;0.90;;;35.30;33.70;;;;;;6064207;23;20433;-78
2023/09/22 14:13:18;;;;;;;1.00;1.00;;;34.50;34.30;;;;;;6066694;23;20816;-77
2023/09/22 14:15:55;;;;;;;0.90;0.90;;;33.80;35.30;;;;;;6063956;23;20536;-78
2023/09/22 14:18:24;;;;;;;0.90;0.90;;;33.80;37.90;;;;;;6071795;23;20420;-79
2023/09/22 14:21:13;;;;;;;0.83;0.83;;;35.00;34.80;;;;;;6128882;23;20440;-76
2023/09/22 14:23:45;;;;;;;2.40;0.80;;;36.20;34.50;;;;;;6154035;23;20477;-79
2023/09/22 14:26:20;;;;;;;0.70;0.70;;;37.20;33.20;;;;;;6156907;23;20961;-79
2023/09/22 14:28:54;;;;;;;0.80;0.80;;;37.70;32.40;;;;;;6157511;23;20416;-78
2023/09/22 14:46:21;;;;;;;0.80;0.80;;;34.10;35.10;;;;;;5922333;23;20418;-78
2023/09/22 14:49:43;;;;;;;0.80;0.80;;;33.40;36.30;;;;;;6055656;23;20404;-79
2023/09/22 14:55:25;;;;;;;0.80;0.80;;;32.20;37.90;;;;;;6018271;23;20416;-79
2023/09/22 14:58:12;;;;;;;1.00;1.00;;;31.80;38.50;;;;;;6039712;23;20417;-79
2023/09/22 15:00:49;;;;;;;1.07;0.83;;;31.50;39.00;;;;;;6039255;23;20488;-78
2023/09/22 15:03:18;;;;;;;1.30;1.20;;;31.20;40.20;;;;;;6036599;23;20461;-75
2023/09/22 15:05:49;;;;;;;2.37;1.47;;;28.70;38.20;;;;;;6034945;23;20443;-75
2023/09/22 15:08:20;;;;;;;1.23;1.13;;;27.10;41.80;;;;;;6035688;23;20480;-76
2023/09/22 15:10:54;;;;;;;1.20;0.90;;;26.20;42.40;;;;;;6035686;23;20439;-76
2023/09/22 15:13:24;;;;;;;5.43;1.20;;;24.90;45.90;;;;;;6036940;23;20391;-76
2023/09/22 15:15:53;;;;;;;1.00;0.90;;;24.40;46.10;;;;;;6036422;23;20940;-76
2023/09/22 15:18:24;;;;;;;3.57;1.13;;;24.00;46.20;;;;;;6036803;23;20466;-75
2023/09/22 15:20:59;;;;;;;1.27;0.80;;;23.90;46.80;;;;;;6036609;23;20407;-76
2023/09/22 15:23:27;;;;;;;1.10;1.00;;;23.70;45.20;;;;;;6155633;23;20783;-77
2023/09/22 15:25:56;;;;;;;1.47;0.90;;;23.60;46.70;;;;;;6155638;23;20383;-76
2023/09/22 15:28:26;;;;;;;2.07;1.13;;;23.30;46.50;;;;;;6154838;23;20415;-76
2023/09/22 15:30:54;;;;;;;2.30;0.93;;;22.60;47.60;;;;;;6154199;23;20960;-76
2023/09/22 15:33:22;;;;;;;1.47;1.10;;;22.50;48.20;;;;;;6154125;23;20409;-76
2023/09/22 15:35:52;;;;;;;4.17;0.97;;;22.60;49.50;;;;;;6155134;23;20468;-76
2023/09/22 15:38:20;;;;;;;1.43;1.33;;;22.40;48.40;;;;;;6155042;23;20410;-74
2023/09/22 15:40:57;;;;;;;5.47;1.50;;;22.20;49.90;;;;;;6155391;23;20456;-76
2023/09/22 15:43:27;;;;;;;1.13;0.80;;;21.80;50.50;;;;;;6155996;23;20383;-76
2023/09/22 15:45:56;;;;;;;1.80;1.10;;;21.70;50.80;;;;;;6156910;23;20405;-77
2023/09/22 15:48:25;;;;;;;1.23;1.10;;;21.80;51.80;;;;;;6158593;23;20405;-76
2023/09/22 15:50:54;;;;;;;3.67;1.10;;;22.90;52.50;;;;;;6174164;23;20404;-77
2023/09/22 15:53:23;;;;;;;1.20;1.10;;;23.90;50.80;;;;;;6176484;23;20379;-77
2023/09/22 15:55:52;;;;;;;3.37;1.33;;;24.70;49.80;;;;;;6167354;23;20384;-77
2023/09/22 15:58:21;;;;;;;8.87;1.33;;;25.40;49.00;;;;;;6159524;23;20415;-77
2023/09/22 16:00:51;;;;;;;1.30;1.20;;;25.80;48.20;;;;;;6156012;23;20414;-75
2023/09/22 16:03:20;;;;;;;2.60;1.07;;;26.20;48.00;;;;;;6156996;23;20409;-77
2023/09/22 16:05:49;;;;;;;1.77;1.07;;;26.50;47.70;;;;;;6156863;23;20409;-76
2023/09/22 16:08:17;;;;;;;3.90;1.20;;;26.80;47.70;;;;;;6156883;23;20437;-76
2023/09/22 16:10:46;;;;;;;2.70;1.43;;;27.00;47.50;;;;;;6156341;23;20403;-77
2023/09/22 16:13:15;;;;;;;4.10;1.40;;;27.10;47.50;;;;;;6156544;23;20460;-76
2023/09/22 16:15:57;;;;;;;7.07;2.13;;;27.30;47.60;;;;;;6155704;23;20383;-77
2023/09/22 16:18:25;;;;;;;2.33;1.80;;;27.40;47.60;;;;;;6156787;23;20476;-76
2023/09/22 16:20:54;;;;;;;3.20;1.63;;;27.50;47.40;;;;;;6155410;23;20477;-76
2023/09/22 16:23:24;;;;;;;6.30;1.33;;;27.60;47.50;;;;;;6129425;23;20379;-76
2023/09/22 16:25:53;;;;;;;3.43;1.53;;;27.60;47.40;;;;;;6155540;23;20409;-76
2023/09/22 16:28:22;;;;;;;1.43;1.33;;;27.70;47.40;;;;;;6155808;23;20409;-76
2023/09/22 16:30:53;;;;;;;1.57;1.47;;;27.70;47.50;;;;;;6155396;23;20429;-77
2023/09/22 16:33:23;;;;;;;4.03;1.90;;;27.80;47.20;;;;;;6156138;23;20517;-75